Time;durP1;ratioP1;P1;durP2;ratioP2;P2;SDS_P1;SDS_P2;PMS_P1;PMS_P2;Temp;Humidity;BMP_temperature;BMP_pressure;BME280_temperature;BME280_humidity;BME280_pressure;Samples;Min_cycle;Max_cycle;Signal;HPM_P1;HPM_P2
2022/05/15 00:01:30;;;;;;;11.83;6.03;;;;;;;;;;5074886;28;20961;-75
2022/05/15 00:03:56;;;;;;;9.40;6.80;;;;;;;;;;5074000;28;20423;-75
2022/05/15 00:06:23;;;;;;;10.30;6.37;;;;;;;;;;5074385;28;20412;-74
2022/05/15 00:08:49;;;;;;;9.87;6.87;;;;;;;;;;5073154;28;20402;-74
2022/05/15 00:11:18;;;;;;;14.30;6.70;;;;;;;;;;5073247;28;20967;-74
2022/05/15 00:13:45;;;;;;;13.70;6.50;;;;;;;;;;5072732;28;20470;-75
2022/05/15 00:16:11;;;;;;;11.43;6.63;;;;;;;;;;5074142;28;20508;-75
2022/05/15 00:18:41;;;;;;;9.53;6.20;;;;;;;;;;5074354;28;20457;-75
2022/05/15 00:21:07;;;;;;;12.10;6.80;;;;;;;;;;5074161;28;20764;-75
2022/05/15 00:23:33;;;;;;;12.30;6.57;;;;;;;;;;5073425;28;20475;-74
2022/05/15 00:25:59;;;;;;;17.07;7.67;;;;;;;;;;5073978;28;20981;-76
2022/05/15 00:28:26;;;;;;;12.67;7.33;;;;;;;;;;5073880;28;20404;-76
2022/05/15 00:30:52;;;;;;;9.57;6.67;;;;;;;;;;5072668;28;20390;-75
2022/05/15 00:33:19;;;;;;;8.57;6.57;;;;;;;;;;5073323;28;20520;-75
2022/05/15 00:35:45;;;;;;;8.80;6.40;;;;;;;;;;5072557;28;20498;-75
2022/05/15 00:38:11;;;;;;;12.73;7.17;;;;;;;;;;5073763;28;20408;-75
2022/05/15 00:40:38;;;;;;;14.97;7.23;;;;;;;;;;5073692;28;20416;-75
2022/05/15 00:43:05;;;;;;;15.70;7.60;;;;;;;;;;5073424;28;20745;-76
2022/05/15 00:45:31;;;;;;;7.50;6.70;;;;;;;;;;5072394;28;20893;-74
2022/05/15 00:47:57;;;;;;;8.93;6.80;;;;;;;;;;5073779;28;20498;-74
2022/05/15 00:50:25;;;;;;;9.03;7.17;;;;;;;;;;5073310;28;20419;-75
2022/05/15 00:52:54;;;;;;;6.97;6.27;;;;;;;;;;5073405;28;20470;-76
2022/05/15 00:55:22;;;;;;;12.77;7.33;;;;;;;;;;5073257;28;20423;-74
2022/05/15 00:58:08;;;;;;;8.30;7.20;;;;;;;;;;5073435;28;20414;-76
2022/05/15 01:00:34;;;;;;;8.37;6.67;;;;;;;;;;5073342;28;20427;-75
2022/05/15 01:03:08;;;;;;;13.23;6.87;;;;;;;;;;5073075;28;20420;-75
2022/05/15 01:05:35;;;;;;;13.37;7.17;;;;;;;;;;5073278;28;20423;-76
2022/05/15 01:08:01;;;;;;;17.43;7.73;;;;;;;;;;5072024;28;20946;-75
2022/05/15 01:10:27;;;;;;;11.30;7.60;;;;;;;;;;5071923;28;20419;-74
2022/05/15 01:12:53;;;;;;;10.10;8.17;;;;;;;;;;5071668;28;20531;-75
2022/05/15 01:15:22;;;;;;;13.37;8.50;;;;;;;;;;5071947;28;20465;-75
2022/05/15 01:17:48;;;;;;;8.30;7.43;;;;;;;;;;5073262;28;20415;-75
2022/05/15 01:20:16;;;;;;;12.47;6.97;;;;;;;;;;5073168;28;20408;-76
2022/05/15 01:22:42;;;;;;;12.20;8.90;;;;;;;;;;5073079;28;20376;-75
2022/05/15 01:25:16;;;;;;;13.33;7.90;;;;;;;;;;5072642;28;20438;-75
2022/05/15 01:27:45;;;;;;;9.10;7.33;;;;;;;;;;5073338;28;20411;-76
2022/05/15 01:30:11;;;;;;;15.03;8.70;;;;;;;;;;5073142;28;20396;-75
2022/05/15 01:32:37;;;;;;;10.33;7.30;;;;;;;;;;5072814;28;20415;-75
2022/05/15 01:35:05;;;;;;;14.95;8.23;;;;;;;;;;5072811;28;20565;-75
2022/05/15 01:37:31;;;;;;;15.20;8.90;;;;;;;;;;5073083;28;20200;-75
2022/05/15 01:39:57;;;;;;;10.27;8.07;;;;;;;;;;5073023;28;20879;-75
2022/05/15 01:42:23;;;;;;;17.50;7.80;;;;;;;;;;5071707;28;20921;-74
2022/05/15 01:44:49;;;;;;;8.57;7.77;;;;;;;;;;5072330;28;20493;-75
2022/05/15 01:47:15;;;;;;;11.57;7.87;;;;;;;;;;5071608;28;20907;-74
2022/05/15 01:49:41;;;;;;;13.35;7.57;;;;;;;;;;5072896;28;20440;-76
2022/05/15 01:52:07;;;;;;;13.10;8.47;;;;;;;;;;5072807;28;20634;-74
2022/05/15 01:54:34;;;;;;;12.50;9.30;;;;;;;;;;5072505;28;20502;-75
2022/05/15 01:57:00;;;;;;;10.93;8.20;;;;;;;;;;5072587;28;20422;-76
2022/05/15 01:59:26;;;;;;;11.60;9.43;;;;;;;;;;5071341;28;20420;-75
2022/05/15 02:01:52;;;;;;;15.33;8.97;;;;;;;;;;5072800;28;20408;-74
2022/05/15 02:04:18;;;;;;;13.30;8.37;;;;;;;;;;5072381;28;20431;-74
2022/05/15 02:06:44;;;;;;;10.70;8.57;;;;;;;;;;5071372;28;20434;-76
2022/05/15 02:09:10;;;;;;;13.53;8.00;;;;;;;;;;5072667;28;20421;-75
2022/05/15 02:11:38;;;;;;;10.30;8.10;;;;;;;;;;5072548;28;20496;-74
2022/05/15 02:14:04;;;;;;;14.27;9.43;;;;;;;;;;5071011;28;20477;-75
2022/05/15 02:16:31;;;;;;;13.70;8.70;;;;;;;;;;5072823;28;20487;-74
2022/05/15 02:18:57;;;;;;;11.68;8.52;;;;;;;;;;5072692;28;20419;-75
2022/05/15 02:21:23;;;;;;;13.17;9.43;;;;;;;;;;5072618;28;20177;-74
2022/05/15 02:23:49;;;;;;;14.57;8.53;;;;;;;;;;5072323;28;20849;-75
2022/05/15 02:26:15;;;;;;;11.33;9.00;;;;;;;;;;5072430;28;20439;-75
2022/05/15 02:28:41;;;;;;;13.37;9.70;;;;;;;;;;5071070;28;20420;-75
2022/05/15 02:31:07;;;;;;;15.07;9.70;;;;;;;;;;5072394;28;20412;-75
2022/05/15 02:33:33;;;;;;;11.30;9.60;;;;;;;;;;5071832;28;21010;-74
2022/05/15 02:36:00;;;;;;;14.20;9.43;;;;;;;;;;5073294;28;20802;-74
2022/05/15 02:38:26;;;;;;;9.90;8.65;;;;;;;;;;5076206;28;20823;-75
2022/05/15 02:40:52;;;;;;;12.63;9.57;;;;;;;;;;5076163;28;20182;-74
2022/05/15 02:43:18;;;;;;;14.90;9.60;;;;;;;;;;5075646;28;20905;-75
2022/05/15 02:45:44;;;;;;;11.40;9.27;;;;;;;;;;5076016;28;20411;-74
2022/05/15 02:51:03;;;;;;;12.97;9.77;;;;;;;;;;5075999;28;20419;-75
2022/05/15 02:51:05;;;;;;;14.40;9.80;;;;;;;;;;5074878;28;20762;-74
2022/05/15 02:53:32;;;;;;;14.43;9.93;;;;;;;;;;5075409;28;20204;-74
2022/05/15 02:55:58;;;;;;;12.83;9.93;;;;;;;;;;5075846;28;20774;-74
2022/05/15 02:58:24;;;;;;;15.57;10.57;;;;;;;;;;5075716;28;20418;-76
2022/05/15 03:00:50;;;;;;;11.40;10.30;;;;;;;;;;5075825;28;20165;-75
2022/05/15 03:03:16;;;;;;;16.60;10.23;;;;;;;;;;5075329;28;20757;-76
2022/05/15 03:05:42;;;;;;;13.43;9.90;;;;;;;;;;5075770;28;20509;-74
2022/05/15 03:08:08;;;;;;;23.83;11.37;;;;;;;;;;5075753;28;20419;-75
2022/05/15 03:10:34;;;;;;;15.75;11.25;;;;;;;;;;5075530;28;20408;-75
2022/05/15 03:13:00;;;;;;;13.40;11.80;;;;;;;;;;5075187;28;20270;-74
2022/05/15 03:15:26;;;;;;;13.80;10.90;;;;;;;;;;5075245;28;20434;-74
2022/05/15 03:17:52;;;;;;;15.27;12.20;;;;;;;;;;5075496;28;20454;-74
2022/05/15 03:20:18;;;;;;;20.40;12.53;;;;;;;;;;5074297;28;20907;-74
2022/05/15 03:22:44;;;;;;;19.35;12.20;;;;;;;;;;5075133;28;20415;-74
2022/05/15 03:25:11;;;;;;;18.07;11.93;;;;;;;;;;5074959;28;20197;-74
2022/05/15 03:27:37;;;;;;;16.40;11.82;;;;;;;;;;5074958;28;20491;-75
2022/05/15 03:30:05;;;;;;;16.30;14.18;;;;;;;;;;5075341;28;20223;-76
2022/05/15 03:32:31;;;;;;;16.55;12.68;;;;;;;;;;5075006;28;20223;-74
2022/05/15 03:34:57;;;;;;;18.33;12.48;;;;;;;;;;5074795;28;20205;-75
2022/05/15 03:37:23;;;;;;;14.48;11.32;;;;;;;;;;5075144;28;20256;-76
2022/05/15 03:39:49;;;;;;;12.23;11.03;;;;;;;;;;5074959;28;20173;-74
2022/05/15 03:42:15;;;;;;;14.10;12.63;;;;;;;;;;5075090;28;20903;-76
2022/05/15 03:44:41;;;;;;;18.00;12.80;;;;;;;;;;5074902;28;20443;-75
2022/05/15 03:47:07;;;;;;;12.68;11.45;;;;;;;;;;5073328;28;20865;-75
2022/05/15 03:49:33;;;;;;;16.02;12.38;;;;;;;;;;5073483;28;20617;-76
2022/05/15 03:51:59;;;;;;;18.42;13.05;;;;;;;;;;5056878;28;20196;-75
2022/05/15 03:54:25;;;;;;;17.58;13.00;;;;;;;;;;5073028;28;20275;-75
2022/05/15 03:56:51;;;;;;;17.83;13.07;;;;;;;;;;5074498;28;20633;-75
2022/05/15 03:59:22;;;;;;;16.08;12.63;;;;;;;;;;5074708;28;20439;-75
2022/05/15 04:01:49;;;;;;;14.38;12.98;;;;;;;;;;5074680;28;20562;-75
2022/05/15 04:04:15;;;;;;;14.57;13.10;;;;;;;;;;5074235;28;20220;-74
2022/05/15 04:06:41;;;;;;;14.53;13.13;;;;;;;;;;5074533;28;20416;-74
2022/05/15 04:09:07;;;;;;;16.20;11.90;;;;;;;;;;5074537;28;20428;-75
2022/05/15 04:11:33;;;;;;;16.45;12.80;;;;;;;;;;5074311;28;20404;-75
2022/05/15 04:14:00;;;;;;;13.57;11.70;;;;;;;;;;5073742;28;20209;-75
2022/05/15 04:16:26;;;;;;;14.85;11.50;;;;;;;;;;5074256;28;20174;-75
2022/05/15 04:18:52;;;;;;;14.77;12.80;;;;;;;;;;5074234;28;20192;-76
2022/05/15 04:21:18;;;;;;;14.33;12.47;;;;;;;;;;5072956;28;20419;-75
2022/05/15 04:23:44;;;;;;;16.90;12.70;;;;;;;;;;5073760;28;20431;-74
2022/05/15 04:26:10;;;;;;;14.27;12.73;;;;;;;;;;5074210;28;20537;-75
2022/05/15 04:28:36;;;;;;;18.00;12.00;;;;;;;;;;5074202;28;20625;-75
2022/05/15 04:31:02;;;;;;;17.13;10.90;;;;;;;;;;5074087;28;20268;-75
2022/05/15 04:33:29;;;;;;;16.45;10.82;;;;;;;;;;5073337;28;20958;-75
2022/05/15 04:35:55;;;;;;;13.07;11.10;;;;;;;;;;5072557;28;20672;-75
2022/05/15 04:38:20;;;;;;;13.93;11.40;;;;;;;;;;5073797;28;20209;-76
2022/05/15 04:40:46;;;;;;;14.63;11.37;;;;;;;;;;5073802;28;20498;-76
2022/05/15 04:43:12;;;;;;;14.67;11.20;;;;;;;;;;5073472;28;20424;-75
2022/05/15 04:45:38;;;;;;;17.07;12.60;;;;;;;;;;5073683;28;20477;-74
2022/05/15 04:48:05;;;;;;;13.60;11.55;;;;;;;;;;5073668;28;20431;-74
2022/05/15 04:50:30;;;;;;;14.27;10.30;;;;;;;;;;5073624;28;20181;-76
2022/05/15 04:52:56;;;;;;;15.23;12.03;;;;;;;;;;5071911;28;20220;-75
2022/05/15 04:55:22;;;;;;;16.23;11.50;;;;;;;;;;5073489;28;20419;-76
2022/05/15 04:57:48;;;;;;;12.57;11.30;;;;;;;;;;5072216;28;20451;-75
2022/05/15 05:00:17;;;;;;;12.00;10.83;;;;;;;;;;5071544;28;20407;-75
2022/05/15 05:02:43;;;;;;;18.80;12.07;;;;;;;;;;5073330;28;20411;-75
2022/05/15 05:05:09;;;;;;;18.88;11.40;;;;;;;;;;5073138;28;20189;-75
2022/05/15 05:07:35;;;;;;;14.40;13.00;;;;;;;;;;5073686;28;20184;-75
2022/05/15 05:10:01;;;;;;;19.03;13.50;;;;;;;;;;5073607;28;20498;-74
2022/05/15 05:12:27;;;;;;;17.67;12.53;;;;;;;;;;5073471;28;20408;-75
2022/05/15 05:14:53;;;;;;;16.57;12.80;;;;;;;;;;5072837;28;20482;-75
2022/05/15 05:17:19;;;;;;;15.37;13.70;;;;;;;;;;5073412;28;20412;-76
2022/05/15 05:19:45;;;;;;;14.00;12.47;;;;;;;;;;5073428;28;20403;-75
2022/05/15 05:22:11;;;;;;;16.70;14.90;;;;;;;;;;5073270;28;20415;-75
2022/05/15 05:24:37;;;;;;;18.53;14.60;;;;;;;;;;5072780;28;20427;-75
2022/05/15 05:27:03;;;;;;;15.80;14.20;;;;;;;;;;5073164;28;20952;-75
2022/05/15 05:29:29;;;;;;;14.60;12.90;;;;;;;;;;5073207;28;20415;-75
2022/05/15 05:31:55;;;;;;;14.90;12.90;;;;;;;;;;5073091;28;20413;-75
2022/05/15 05:34:21;;;;;;;15.53;13.93;;;;;;;;;;5071330;28;20939;-75
2022/05/15 05:36:47;;;;;;;16.63;13.57;;;;;;;;;;5073191;28;20478;-74
2022/05/15 05:39:13;;;;;;;17.10;13.23;;;;;;;;;;5073178;28;20409;-76
2022/05/15 05:41:39;;;;;;;15.67;14.00;;;;;;;;;;5071701;28;20976;-75
2022/05/15 05:44:05;;;;;;;14.10;12.80;;;;;;;;;;5072533;28;20431;-76
2022/05/15 05:46:31;;;;;;;14.77;13.10;;;;;;;;;;5072810;28;20446;-74
2022/05/15 05:48:58;;;;;;;16.83;14.43;;;;;;;;;;5072881;28;20450;-75
2022/05/15 05:51:25;;;;;;;18.53;13.70;;;;;;;;;;5072846;28;20412;-75
2022/05/15 05:53:51;;;;;;;19.40;14.80;;;;;;;;;;5072420;28;20513;-75
2022/05/15 05:56:18;;;;;;;16.30;13.93;;;;;;;;;;5072754;28;20411;-75
2022/05/15 05:58:45;;;;;;;14.20;12.80;;;;;;;;;;5072526;28;20400;-75
2022/05/15 06:01:11;;;;;;;17.20;14.47;;;;;;;;;;5072777;28;20899;-76
2022/05/15 06:06:21;;;;;;;16.43;14.00;;;;;;;;;;5072751;28;20969;-76
2022/05/15 06:08:47;;;;;;;20.23;14.67;;;;;;;;;;5072623;28;20426;-75
2022/05/15 06:11:13;;;;;;;17.13;13.67;;;;;;;;;;5075634;28;20407;-75
2022/05/15 06:13:39;;;;;;;17.83;14.53;;;;;;;;;;5076273;28;20954;-75
2022/05/15 06:16:06;;;;;;;15.63;12.50;;;;;;;;;;5076562;28;20586;-74
2022/05/15 06:18:32;;;;;;;15.30;13.47;;;;;;;;;;5076838;28;20379;-76
2022/05/15 06:20:58;;;;;;;15.70;14.20;;;;;;;;;;5076531;28;20422;-76
2022/05/15 06:23:24;;;;;;;12.73;11.50;;;;;;;;;;5076487;28;20382;-76
2022/05/15 06:25:50;;;;;;;14.70;11.03;;;;;;;;;;5075509;28;20906;-75
2022/05/15 06:28:16;;;;;;;14.37;11.70;;;;;;;;;;5058719;28;20485;-75
2022/05/15 06:30:42;;;;;;;15.63;12.47;;;;;;;;;;5076409;28;20415;-75
2022/05/15 06:33:08;;;;;;;15.20;10.83;;;;;;;;;;5075763;28;20981;-75
2022/05/15 06:35:34;;;;;;;11.60;10.40;;;;;;;;;;5074888;28;20481;-75
2022/05/15 06:38:01;;;;;;;13.73;9.33;;;;;;;;;;5074970;28;20879;-74
2022/05/15 06:40:27;;;;;;;15.43;9.80;;;;;;;;;;5076082;28;20382;-74
2022/05/15 06:42:53;;;;;;;14.83;9.50;;;;;;;;;;5058047;28;20401;-75
2022/05/15 06:45:19;;;;;;;12.67;8.47;;;;;;;;;;5076086;28;20517;-75
2022/05/15 06:47:45;;;;;;;13.40;8.20;;;;;;;;;;5076057;28;20411;-75
2022/05/15 06:50:11;;;;;;;12.33;7.80;;;;;;;;;;5076110;28;20853;-75
2022/05/15 06:52:38;;;;;;;14.20;7.67;;;;;;;;;;5075726;28;20787;-76
2022/05/15 06:55:06;;;;;;;10.20;7.40;;;;;;;;;;5075329;28;20450;-74
2022/05/15 06:57:33;;;;;;;11.30;6.27;;;;;;;;;;5075724;28;20391;-74
2022/05/15 07:00:00;;;;;;;9.93;6.10;;;;;;;;;;5075683;28;20390;-76
2022/05/15 07:02:27;;;;;;;15.80;7.13;;;;;;;;;;5075708;28;20917;-75
2022/05/15 07:04:53;;;;;;;11.77;6.60;;;;;;;;;;5074157;28;20793;-76
2022/05/15 07:07:19;;;;;;;9.87;6.57;;;;;;;;;;5075488;28;20408;-76
2022/05/15 07:09:45;;;;;;;14.23;6.87;;;;;;;;;;5075652;28;20390;-75
2022/05/15 07:12:11;;;;;;;10.13;6.60;;;;;;;;;;5075818;28;20394;-75
2022/05/15 07:14:37;;;;;;;13.20;6.63;;;;;;;;;;5074239;28;20463;-76
2022/05/15 07:17:03;;;;;;;8.93;6.37;;;;;;;;;;5074299;28;20404;-75
2022/05/15 07:19:29;;;;;;;15.80;7.33;;;;;;;;;;5075343;28;20382;-76
2022/05/15 07:21:55;;;;;;;9.83;6.20;;;;;;;;;;5074727;28;20885;-74
2022/05/15 07:24:22;;;;;;;14.13;7.23;;;;;;;;;;5075090;28;20427;-74
2022/05/15 07:26:48;;;;;;;14.87;6.30;;;;;;;;;;5074391;28;20890;-75
2022/05/15 07:29:15;;;;;;;14.33;6.20;;;;;;;;;;5075235;28;20485;-75
2022/05/15 07:31:41;;;;;;;12.10;6.90;;;;;;;;;;5075079;28;20415;-75
2022/05/15 07:34:07;;;;;;;14.20;5.40;;;;;;;;;;5074758;28;20490;-76
2022/05/15 07:36:33;;;;;;;12.17;5.53;;;;;;;;;;5075261;28;20408;-75
2022/05/15 07:38:59;;;;;;;10.57;6.17;;;;;;;;;;5075040;28;20494;-75
2022/05/15 07:41:25;;;;;;;8.03;4.97;;;;;;;;;;5075014;28;20439;-75
2022/05/15 07:43:51;;;;;;;11.90;5.27;;;;;;;;;;5074439;28;20432;-75
2022/05/15 07:46:17;;;;;;;7.40;5.27;;;;;;;;;;5075071;28;20422;-76
2022/05/15 07:48:43;;;;;;;11.57;4.97;;;;;;;;;;5074936;28;20456;-77
2022/05/15 07:51:09;;;;;;;12.80;5.63;;;;;;;;;;5074807;28;20415;-76
2022/05/15 07:53:38;;;;;;;9.43;4.97;;;;;;;;;;5072838;28;20445;-76
2022/05/15 07:56:09;;;;;;;9.43;5.00;;;;;;;;;;5073343;28;20415;-75
2022/05/15 07:58:36;;;;;;;7.20;4.70;;;;;;;;;;5073379;28;20398;-76
2022/05/15 08:01:04;;;;;;;8.47;4.90;;;;;;;;;;5074625;28;20548;-75
2022/05/15 08:03:33;;;;;;;12.20;4.90;;;;;;;;;;5072769;28;20800;-76
2022/05/15 08:08:44;;;;;;;7.47;4.00;;;;;;;;;;5074832;28;20439;-75
2022/05/15 08:11:09;;;;;;;9.10;4.07;;;;;;;;;;5074747;28;20915;-76
2022/05/15 08:13:36;;;;;;;8.90;4.40;;;;;;;;;;5073857;28;20467;-77
2022/05/15 08:16:02;;;;;;;8.73;3.80;;;;;;;;;;5074296;28;20407;-78
2022/05/15 08:23:59;;;;;;;9.10;3.70;;;;;;;;;;5073875;28;20451;-77
2022/05/15 08:26:25;;;;;;;7.27;3.87;;;;;;;;;;5074059;28;20470;-77
2022/05/15 08:28:52;;;;;;;10.83;4.30;;;;;;;;;;5074227;28;20464;-77
2022/05/15 08:31:19;;;;;;;8.70;3.70;;;;;;;;;;5074205;28;20403;-77
2022/05/15 08:33:45;;;;;;;6.23;3.90;;;;;;;;;;5072422;28;20517;-77
2022/05/15 08:36:11;;;;;;;10.30;3.13;;;;;;;;;;5073881;28;20469;-78
2022/05/15 08:38:38;;;;;;;5.43;3.37;;;;;;;;;;5074026;28;20429;-77
2022/05/15 08:41:04;;;;;;;6.10;3.93;;;;;;;;;;5073941;28;20928;-78
2022/05/15 08:43:51;;;;;;;9.57;4.10;;;;;;;;;;5073481;28;20409;-78
2022/05/15 08:46:26;;;;;;;6.90;4.10;;;;;;;;;;5073812;28;20399;-77
2022/05/15 08:48:53;;;;;;;9.97;4.17;;;;;;;;;;5073697;28;20420;-76
2022/05/15 08:51:19;;;;;;;6.87;3.50;;;;;;;;;;5073770;28;20908;-75
2022/05/15 08:53:47;;;;;;;9.27;3.80;;;;;;;;;;5055280;28;20479;-74
2022/05/15 08:56:14;;;;;;;6.47;3.43;;;;;;;;;;5072146;28;20410;-75
2022/05/15 08:58:47;;;;;;;5.63;3.10;;;;;;;;;;5073404;28;20406;-75
2022/05/15 09:01:15;;;;;;;8.10;3.27;;;;;;;;;;5073353;28;20471;-75
2022/05/15 09:03:41;;;;;;;7.20;3.53;;;;;;;;;;5073002;28;20492;-75
2022/05/15 09:06:10;;;;;;;8.07;3.37;;;;;;;;;;5073299;28;20507;-75
2022/05/15 09:08:54;;;;;;;5.20;3.00;;;;;;;;;;5073317;28;20416;-75
2022/05/15 09:11:39;;;;;;;8.57;3.17;;;;;;;;;;5071989;28;20469;-75
2022/05/15 09:14:11;;;;;;;5.77;3.40;;;;;;;;;;5072788;28;20501;-75
2022/05/15 09:16:42;;;;;;;7.73;2.87;;;;;;;;;;5073244;28;20496;-72
2022/05/15 09:19:08;;;;;;;5.17;2.87;;;;;;;;;;5073067;28;20949;-75
2022/05/15 09:21:34;;;;;;;4.80;3.30;;;;;;;;;;5073268;28;20411;-72
2022/05/15 09:24:06;;;;;;;6.80;3.00;;;;;;;;;;5072765;28;20432;-72
2022/05/15 09:26:43;;;;;;;7.03;3.00;;;;;;;;;;5073202;28;20408;-72
2022/05/15 09:29:16;;;;;;;7.10;3.60;;;;;;;;;;5073228;28;20858;-72
2022/05/15 09:31:42;;;;;;;8.77;3.60;;;;;;;;;;5073130;28;20403;-72
2022/05/15 09:34:21;;;;;;;6.60;2.90;;;;;;;;;;5072520;28;20503;-73
2022/05/15 09:36:48;;;;;;;6.23;2.23;;;;;;;;;;5073054;28;20404;-72
2022/05/15 09:39:27;;;;;;;8.37;3.40;;;;;;;;;;5072766;28;20434;-74
2022/05/15 09:45:14;;;;;;;7.13;3.00;;;;;;;;;;5072945;28;20426;-73
2022/05/15 09:47:45;;;;;;;7.93;2.97;;;;;;;;;;5072998;28;20403;-73
2022/05/15 09:50:30;;;;;;;6.30;2.60;;;;;;;;;;5072787;28;20754;-75
2022/05/15 09:53:00;;;;;;;8.13;2.60;;;;;;;;;;5072353;28;20416;-74
2022/05/15 09:55:27;;;;;;;4.07;2.77;;;;;;;;;;5072770;28;20416;-74
2022/05/15 09:57:58;;;;;;;5.93;2.40;;;;;;;;;;5071519;28;20488;-74
2022/05/15 10:00:27;;;;;;;4.53;2.20;;;;;;;;;;5072446;28;20410;-75
2022/05/15 10:02:54;;;;;;;7.50;2.80;;;;;;;;;;5072382;28;20399;-74
2022/05/15 10:05:26;;;;;;;7.33;2.80;;;;;;;;;;5072714;28;20451;-74
2022/05/15 10:08:06;;;;;;;4.90;2.37;;;;;;;;;;5072608;28;20396;-74
2022/05/15 10:10:46;;;;;;;4.00;2.23;;;;;;;;;;5072560;28;20404;-74
2022/05/15 10:13:26;;;;;;;5.87;3.27;;;;;;;;;;5072334;28;20455;-74
2022/05/15 10:15:52;;;;;;;4.10;2.57;;;;;;;;;;5071275;28;20509;-74
2022/05/15 10:18:21;;;;;;;8.33;2.63;;;;;;;;;;5071494;28;20407;-74
2022/05/15 10:20:48;;;;;;;7.33;2.60;;;;;;;;;;5072407;28;20490;-74
2022/05/15 10:23:14;;;;;;;10.83;3.17;;;;;;;;;;5072410;28;20404;-74
2022/05/15 10:25:49;;;;;;;6.00;2.87;;;;;;;;;;5072585;28;20518;-74
2022/05/15 10:28:38;;;;;;;5.00;2.73;;;;;;;;;;5072800;28;20442;-74
2022/05/15 10:31:04;;;;;;;7.20;2.37;;;;;;;;;;5071478;28;20418;-74
2022/05/15 10:33:35;;;;;;;4.97;2.30;;;;;;;;;;5079757;28;20518;-74
2022/05/15 10:36:07;;;;;;;5.70;2.20;;;;;;;;;;5080545;28;20409;-73
2022/05/15 10:38:52;;;;;;;4.33;2.17;;;;;;;;;;5082933;28;20408;-74
2022/05/15 10:41:24;;;;;;;6.73;2.67;;;;;;;;;;5082971;28;20434;-74
2022/05/15 10:43:53;;;;;;;3.93;2.67;;;;;;;;;;5082747;28;20549;-74
2022/05/15 10:46:38;;;;;;;7.97;2.50;;;;;;;;;;5081464;28;20423;-74
2022/05/15 10:49:04;;;;;;;3.77;2.30;;;;;;;;;;5082806;28;20398;-74
2022/05/15 10:51:30;;;;;;;6.93;2.80;;;;;;;;;;5084158;28;20472;-73
2022/05/15 10:59:28;;;;;;;6.33;2.90;;;;;;;;;;5096290;28;20494;-77
2022/05/15 11:01:59;;;;;;;5.60;2.70;;;;;;;;;;5096043;28;20435;-76
2022/05/15 11:04:44;;;;;;;5.43;2.60;;;;;;;;;;5095585;28;20466;-76
2022/05/15 11:07:16;;;;;;;4.77;2.23;;;;;;;;;;5095779;28;20483;-77
2022/05/15 11:10:01;;;;;;;2.60;1.87;;;;;;;;;;5095913;28;20403;-76
2022/05/15 11:12:50;;;;;;;5.10;2.43;;;;;;;;;;5095862;28;20435;-77
2022/05/15 11:15:31;;;;;;;6.80;2.60;;;;;;;;;;5084576;28;20952;-77
2022/05/15 11:18:16;;;;;;;4.57;2.20;;;;;;;;;;5095968;28;20407;-77
2022/05/15 11:20:47;;;;;;;5.60;2.50;;;;;;;;;;5095857;28;20771;-77
2022/05/15 11:23:45;;;;;;;5.33;2.50;;;;;;;;;;5095429;28;20494;-77
2022/05/15 11:26:21;;;;;;;4.83;2.30;;;;;;;;;;5051183;28;20415;-77
2022/05/15 11:28:49;;;;;;;3.87;2.43;;;;;;;;;;5095523;28;20474;-77
2022/05/15 11:31:17;;;;;;;9.27;2.77;;;;;;;;;;5094128;28;20410;-78
2022/05/15 11:33:54;;;;;;;3.83;2.40;;;;;;;;;;5095028;28;20977;-77
2022/05/15 11:36:23;;;;;;;4.60;2.27;;;;;;;;;;5095629;28;20912;-78
2022/05/15 11:38:59;;;;;;;4.80;2.00;;;;;;;;;;5095396;28;20399;-77
2022/05/15 11:41:37;;;;;;;3.57;2.00;;;;;;;;;;5095302;28;20402;-76
2022/05/15 11:44:05;;;;;;;6.00;2.13;;;;;;;;;;5094949;28;20511;-77
2022/05/15 11:46:52;;;;;;;4.30;2.20;;;;;;;;;;5094937;28;20411;-76
2022/05/15 11:49:17;;;;;;;4.93;2.90;;;;;;;;;;5081181;28;20414;-78
2022/05/15 11:51:53;;;;;;;5.87;1.90;;;;;;;;;;5095103;28;20403;-77
2022/05/15 11:54:30;;;;;;;3.80;2.63;;;;;;;;;;5094564;28;20461;-77
2022/05/15 11:56:57;;;;;;;4.50;3.60;;;;;;;;;;5094695;28;20415;-77
2022/05/15 11:59:32;;;;;;;7.17;3.37;;;;;;;;;;5094826;28;20494;-76
2022/05/15 12:02:00;;;;;;;6.20;4.10;;;;;;;;;;5090158;28;20411;-77
2022/05/15 12:04:36;;;;;;;3.10;2.20;;;;;;;;;;5073987;28;20459;-77
2022/05/15 12:07:02;;;;;;;4.80;2.27;;;;;;;;;;5078382;28;20500;-76
2022/05/15 12:09:31;;;;;;;6.43;2.13;;;;;;;;;;5094423;28;20438;-77
2022/05/15 12:12:17;;;;;;;5.13;2.10;;;;;;;;;;5087073;28;20557;-77
2022/05/15 12:15:03;;;;;;;4.67;2.40;;;;;;;;;;5087024;28;20445;-77
2022/05/15 12:17:30;;;;;;;8.67;2.13;;;;;;;;;;5094384;28;20422;-76
2022/05/15 12:20:11;;;;;;;3.30;2.07;;;;;;;;;;5094609;28;20411;-77
2022/05/15 12:22:38;;;;;;;4.33;1.87;;;;;;;;;;5094457;28;20398;-77
2022/05/15 12:25:09;;;;;;;4.37;2.00;;;;;;;;;;5095167;28;20819;-77
2022/05/15 12:27:42;;;;;;;3.73;1.90;;;;;;;;;;5094272;28;20414;-77
2022/05/15 12:30:15;;;;;;;3.80;1.60;;;;;;;;;;5094338;28;20411;-76
2022/05/15 12:33:00;;;;;;;4.07;1.97;;;;;;;;;;5092771;28;20431;-77
2022/05/15 12:35:33;;;;;;;3.40;1.90;;;;;;;;;;5098509;28;20862;-77
2022/05/15 12:38:07;;;;;;;3.27;1.70;;;;;;;;;;5100514;28;20937;-77
2022/05/15 12:40:37;;;;;;;5.70;2.07;;;;;;;;;;5074077;28;20410;-77
2022/05/15 12:43:17;;;;;;;4.17;1.80;;;;;;;;;;5073468;28;20491;-77
2022/05/15 12:45:43;;;;;;;4.87;2.07;;;;;;;;;;5073830;28;20430;-77
2022/05/15 12:48:10;;;;;;;5.57;2.00;;;;;;;;;;5076489;28;20424;-76
2022/05/15 12:50:50;;;;;;;3.40;2.00;;;;;;;;;;5082188;28;20423;-77
2022/05/15 12:53:27;;;;;;;3.17;2.10;;;;;;;;;;5088605;28;20423;-76
2022/05/15 12:55:54;;;;;;;2.60;1.77;;;;;;;;;;5074781;28;20430;-77
2022/05/15 12:58:40;;;;;;;4.13;1.60;;;;;;;;;;5073409;28;20416;-76
2022/05/15 13:01:06;;;;;;;3.47;1.77;;;;;;;;;;5076329;28;20419;-76
2022/05/15 13:03:33;;;;;;;6.63;2.20;;;;;;;;;;5089613;28;20516;-77
2022/05/15 13:06:02;;;;;;;3.00;1.90;;;;;;;;;;5081019;28;20428;-77
2022/05/15 13:08:42;;;;;;;6.50;1.90;;;;;;;;;;5089937;28;20478;-76
2022/05/15 13:11:08;;;;;;;7.27;1.77;;;;;;;;;;5088806;28;20404;-77
2022/05/15 13:13:35;;;;;;;7.50;2.30;;;;;;;;;;5072860;28;20829;-76
2022/05/15 13:16:04;;;;;;;3.50;1.90;;;;;;;;;;5073424;28;20494;-76
2022/05/15 13:18:34;;;;;;;5.93;2.23;;;;;;;;;;5093546;28;20399;-78
2022/05/15 13:21:01;;;;;;;5.53;2.70;;;;;;;;;;5089588;28;20446;-78
2022/05/15 13:23:38;;;;;;;2.63;2.27;;;;;;;;;;5083666;28;20458;-76
2022/05/15 13:26:06;;;;;;;5.77;2.60;;;;;;;;;;5073380;28;20505;-77
2022/05/15 13:28:33;;;;;;;2.97;1.90;;;;;;;;;;5089553;28;20407;-77
2022/05/15 13:31:00;;;;;;;3.97;2.10;;;;;;;;;;5093346;28;20401;-77
2022/05/15 13:33:29;;;;;;;4.17;1.87;;;;;;;;;;5093001;28;20522;-77
2022/05/15 13:35:56;;;;;;;2.00;1.83;;;;;;;;;;5093122;28;20839;-77
2022/05/15 13:38:25;;;;;;;2.93;2.10;;;;;;;;;;5093081;28;20414;-77
2022/05/15 13:43:39;;;;;;;4.70;1.97;;;;;;;;;;5099356;28;20456;-76
2022/05/15 13:46:08;;;;;;;3.63;2.30;;;;;;;;;;5113274;28;20406;-77
2022/05/15 13:48:54;;;;;;;2.83;1.77;;;;;;;;;;5111874;28;20394;-77
2022/05/15 13:51:30;;;;;;;3.80;2.20;;;;;;;;;;5113472;28;20413;-77
2022/05/15 13:54:10;;;;;;;4.30;2.37;;;;;;;;;;5111510;28;20486;-77
2022/05/15 13:56:36;;;;;;;4.73;2.00;;;;;;;;;;5113155;28;20773;-77
2022/05/15 13:59:03;;;;;;;3.20;2.00;;;;;;;;;;5113437;28;20417;-77
2022/05/15 14:01:31;;;;;;;3.40;1.97;;;;;;;;;;5113286;28;20489;-77
2022/05/15 14:03:58;;;;;;;5.63;2.00;;;;;;;;;;5112602;28;20821;-77
2022/05/15 14:06:24;;;;;;;3.17;1.93;;;;;;;;;;5112920;28;20406;-78
2022/05/15 14:08:57;;;;;;;3.53;1.73;;;;;;;;;;5113171;28;20402;-76
2022/05/15 14:11:24;;;;;;;4.00;1.93;;;;;;;;;;5111840;28;20471;-77
2022/05/15 14:13:50;;;;;;;2.97;2.30;;;;;;;;;;5112797;28;20482;-77
2022/05/15 14:16:18;;;;;;;3.70;2.13;;;;;;;;;;5113030;28;20405;-77
2022/05/15 14:18:44;;;;;;;6.60;2.00;;;;;;;;;;5112973;28;20409;-77
2022/05/15 14:21:11;;;;;;;4.47;2.03;;;;;;;;;;5112860;28;20410;-77
2022/05/15 14:23:38;;;;;;;4.10;2.20;;;;;;;;;;5112719;28;20449;-77
2022/05/15 14:26:04;;;;;;;5.87;2.23;;;;;;;;;;5113368;28;20454;-76
2022/05/15 14:28:30;;;;;;;4.47;2.40;;;;;;;;;;5112920;28;20409;-77
2022/05/15 14:30:56;;;;;;;5.83;2.17;;;;;;;;;;5113068;28;20405;-77
2022/05/15 14:33:24;;;;;;;3.20;2.03;;;;;;;;;;5114643;28;20752;-78
2022/05/15 14:35:56;;;;;;;2.43;1.60;;;;;;;;;;5116888;28;20490;-77
2022/05/15 14:38:22;;;;;;;4.93;2.10;;;;;;;;;;5116774;28;20510;-77
2022/05/15 14:40:48;;;;;;;5.87;2.73;;;;;;;;;;5116771;28;20414;-77
2022/05/15 14:43:14;;;;;;;2.30;1.87;;;;;;;;;;5115496;28;20461;-76
2022/05/15 14:45:45;;;;;;;4.00;1.63;;;;;;;;;;5115538;28;20436;-76
2022/05/15 14:48:14;;;;;;;12.00;3.00;;;;;;;;;;5116891;28;20432;-77
2022/05/15 14:50:40;;;;;;;3.90;2.00;;;;;;;;;;5116701;28;20749;-79
2022/05/15 14:53:06;;;;;;;3.30;1.90;;;;;;;;;;5116360;28;20406;-77
2022/05/15 14:58:18;;;;;;;2.67;1.83;;;;;;;;;;5116975;28;20889;-77
2022/05/15 15:00:44;;;;;;;6.13;1.80;;;;;;;;;;5092461;28;20418;-77
2022/05/15 15:03:10;;;;;;;3.17;2.40;;;;;;;;;;5092759;28;20418;-76
2022/05/15 15:05:45;;;;;;;2.30;1.67;;;;;;;;;;5094164;28;20521;-78
2022/05/15 15:08:22;;;;;;;2.87;1.53;;;;;;;;;;5092996;28;20422;-77